sensor_id;sensor_type;location;lat;lon;timestamp;P1;durP1;ratioP1;P2;durP2;ratioP2
17145;SDS011;8688;54.444;18.444;2022-12-07T00:00:53;26.43;;;10.57;;
17145;SDS011;8688;54.444;18.444;2022-12-07T00:03:21;23.83;;;10.50;;
17145;SDS011;8688;54.444;18.444;2022-12-07T00:05:50;21.20;;;9.63;;
17145;SDS011;8688;54.444;18.444;2022-12-07T00:08:17;22.37;;;9.60;;
17145;SDS011;8688;54.444;18.444;2022-12-07T00:10:44;18.73;;;8.83;;
17145;SDS011;8688;54.444;18.444;2022-12-07T00:13:12;21.43;;;9.20;;
17145;SDS011;8688;54.444;18.444;2022-12-07T00:15:39;19.37;;;8.93;;
17145;SDS011;8688;54.444;18.444;2022-12-07T00:18:07;20.93;;;9.33;;
17145;SDS011;8688;54.444;18.444;2022-12-07T00:20:34;20.27;;;9.33;;
17145;SDS011;8688;54.444;18.444;2022-12-07T00:23:03;19.07;;;8.57;;
17145;SDS011;8688;54.444;18.444;2022-12-07T00:25:30;18.73;;;8.80;;
17145;SDS011;8688;54.444;18.444;2022-12-07T00:27:58;17.57;;;8.63;;
17145;SDS011;8688;54.444;18.444;2022-12-07T00:30:25;18.37;;;8.80;;
17145;SDS011;8688;54.444;18.444;2022-12-07T00:32:53;17.47;;;8.30;;
17145;SDS011;8688;54.444;18.444;2022-12-07T00:35:20;15.60;;;7.97;;
17145;SDS011;8688;54.444;18.444;2022-12-07T00:37:47;20.53;;;9.17;;
17145;SDS011;8688;54.444;18.444;2022-12-07T00:40:16;18.20;;;8.17;;
17145;SDS011;8688;54.444;18.444;2022-12-07T00:42:44;17.10;;;8.20;;
17145;SDS011;8688;54.444;18.444;2022-12-07T00:45:11;16.73;;;7.73;;
17145;SDS011;8688;54.444;18.444;2022-12-07T00:47:39;20.40;;;9.33;;
17145;SDS011;8688;54.444;18.444;2022-12-07T00:50:06;16.40;;;8.23;;
17145;SDS011;8688;54.444;18.444;2022-12-07T00:52:34;15.83;;;7.57;;
17145;SDS011;8688;54.444;18.444;2022-12-07T00:55:02;17.90;;;7.97;;
17145;SDS011;8688;54.444;18.444;2022-12-07T00:57:31;16.60;;;7.53;;
17145;SDS011;8688;54.444;18.444;2022-12-07T00:59:58;13.53;;;7.20;;
17145;SDS011;8688;54.444;18.444;2022-12-07T01:02:26;16.13;;;7.83;;
17145;SDS011;8688;54.444;18.444;2022-12-07T01:04:53;18.17;;;8.17;;
17145;SDS011;8688;54.444;18.444;2022-12-07T01:07:21;15.20;;;7.47;;
17145;SDS011;8688;54.444;18.444;2022-12-07T01:09:48;19.63;;;8.30;;
17145;SDS011;8688;54.444;18.444;2022-12-07T01:12:15;17.87;;;8.17;;
17145;SDS011;8688;54.444;18.444;2022-12-07T01:14:44;18.20;;;7.97;;
17145;SDS011;8688;54.444;18.444;2022-12-07T01:17:12;15.63;;;7.20;;
17145;SDS011;8688;54.444;18.444;2022-12-07T01:19:40;16.07;;;7.63;;
17145;SDS011;8688;54.444;18.444;2022-12-07T01:22:07;18.07;;;8.17;;
17145;SDS011;8688;54.444;18.444;2022-12-07T01:24:35;16.40;;;7.90;;
17145;SDS011;8688;54.444;18.444;2022-12-07T01:27:02;16.60;;;7.87;;
17145;SDS011;8688;54.444;18.444;2022-12-07T01:29:30;16.03;;;7.97;;
17145;SDS011;8688;54.444;18.444;2022-12-07T01:31:59;17.10;;;7.37;;
17145;SDS011;8688;54.444;18.444;2022-12-07T01:34:26;15.93;;;7.83;;
17145;SDS011;8688;54.444;18.444;2022-12-07T01:36:54;17.67;;;7.77;;
17145;SDS011;8688;54.444;18.444;2022-12-07T01:39:21;16.73;;;7.83;;
17145;SDS011;8688;54.444;18.444;2022-12-07T01:41:49;18.17;;;7.60;;
17145;SDS011;8688;54.444;18.444;2022-12-07T01:44:19;18.00;;;8.40;;
17145;SDS011;8688;54.444;18.444;2022-12-07T01:46:48;16.37;;;7.90;;
17145;SDS011;8688;54.444;18.444;2022-12-07T01:49:27;15.83;;;7.60;;
17145;SDS011;8688;54.444;18.444;2022-12-07T01:52:00;15.47;;;7.70;;
17145;SDS011;8688;54.444;18.444;2022-12-07T01:54:34;15.10;;;7.43;;
17145;SDS011;8688;54.444;18.444;2022-12-07T01:57:02;15.97;;;7.43;;
17145;SDS011;8688;54.444;18.444;2022-12-07T01:59:31;15.57;;;8.33;;
17145;SDS011;8688;54.444;18.444;2022-12-07T02:01:59;15.83;;;6.83;;
17145;SDS011;8688;54.444;18.444;2022-12-07T02:04:31;14.53;;;7.13;;
17145;SDS011;8688;54.444;18.444;2022-12-07T02:07:00;12.67;;;5.77;;
17145;SDS011;8688;54.444;18.444;2022-12-07T02:09:29;15.37;;;6.97;;
17145;SDS011;8688;54.444;18.444;2022-12-07T02:11:56;12.93;;;6.23;;
17145;SDS011;8688;54.444;18.444;2022-12-07T02:14:24;17.27;;;7.20;;
17145;SDS011;8688;54.444;18.444;2022-12-07T02:16:54;15.37;;;6.23;;
17145;SDS011;8688;54.444;18.444;2022-12-07T02:26:06;15.27;;;6.07;;
17145;SDS011;8688;54.444;18.444;2022-12-07T02:29:04;13.10;;;6.13;;
17145;SDS011;8688;54.444;18.444;2022-12-07T02:31:41;14.10;;;5.73;;
17145;SDS011;8688;54.444;18.444;2022-12-07T02:34:15;10.63;;;5.27;;
17145;SDS011;8688;54.444;18.444;2022-12-07T02:36:52;10.13;;;5.43;;
17145;SDS011;8688;54.444;18.444;2022-12-07T02:39:25;12.40;;;5.77;;
17145;SDS011;8688;54.444;18.444;2022-12-07T02:41:59;14.40;;;5.50;;
17145;SDS011;8688;54.444;18.444;2022-12-07T02:44:40;14.83;;;5.77;;
17145;SDS011;8688;54.444;18.444;2022-12-07T02:47:09;14.07;;;5.83;;
17145;SDS011;8688;54.444;18.444;2022-12-07T02:49:40;14.37;;;5.60;;
17145;SDS011;8688;54.444;18.444;2022-12-07T02:52:08;9.40;;;4.63;;
17145;SDS011;8688;54.444;18.444;2022-12-07T02:54:36;13.33;;;5.67;;
17145;SDS011;8688;54.444;18.444;2022-12-07T02:57:05;13.27;;;5.20;;
17145;SDS011;8688;54.444;18.444;2022-12-07T02:59:49;12.87;;;4.90;;
17145;SDS011;8688;54.444;18.444;2022-12-07T03:02:28;10.17;;;5.00;;
17145;SDS011;8688;54.444;18.444;2022-12-07T03:05:06;9.63;;;4.93;;
17145;SDS011;8688;54.444;18.444;2022-12-07T03:07:54;8.20;;;4.17;;
17145;SDS011;8688;54.444;18.444;2022-12-07T03:10:32;8.03;;;4.20;;
17145;SDS011;8688;54.444;18.444;2022-12-07T03:13:09;8.57;;;4.37;;
17145;SDS011;8688;54.444;18.444;2022-12-07T03:15:41;8.17;;;4.40;;
17145;SDS011;8688;54.444;18.444;2022-12-07T03:18:17;8.73;;;4.00;;
17145;SDS011;8688;54.444;18.444;2022-12-07T03:20:48;7.77;;;4.53;;
17145;SDS011;8688;54.444;18.444;2022-12-07T03:23:19;7.93;;;3.90;;
17145;SDS011;8688;54.444;18.444;2022-12-07T03:25:48;5.93;;;3.60;;
17145;SDS011;8688;54.444;18.444;2022-12-07T03:28:19;8.27;;;3.97;;
17145;SDS011;8688;54.444;18.444;2022-12-07T03:30:52;6.33;;;3.83;;
17145;SDS011;8688;54.444;18.444;2022-12-07T03:33:24;6.07;;;3.50;;
17145;SDS011;8688;54.444;18.444;2022-12-07T03:35:57;6.43;;;3.53;;
17145;SDS011;8688;54.444;18.444;2022-12-07T03:38:31;7.73;;;3.90;;
17145;SDS011;8688;54.444;18.444;2022-12-07T03:41:05;6.47;;;3.40;;
17145;SDS011;8688;54.444;18.444;2022-12-07T03:43:35;9.40;;;3.70;;
17145;SDS011;8688;54.444;18.444;2022-12-07T03:46:06;8.47;;;4.30;;
17145;SDS011;8688;54.444;18.444;2022-12-07T03:48:42;7.07;;;3.90;;
17145;SDS011;8688;54.444;18.444;2022-12-07T03:51:20;6.47;;;3.87;;
17145;SDS011;8688;54.444;18.444;2022-12-07T03:53:53;9.27;;;4.10;;
17145;SDS011;8688;54.444;18.444;2022-12-07T03:56:25;6.87;;;4.10;;
17145;SDS011;8688;54.444;18.444;2022-12-07T03:58:54;6.37;;;3.60;;
17145;SDS011;8688;54.444;18.444;2022-12-07T04:01:24;6.33;;;3.37;;
17145;SDS011;8688;54.444;18.444;2022-12-07T04:03:51;6.80;;;3.53;;
17145;SDS011;8688;54.444;18.444;2022-12-07T04:06:19;6.97;;;3.40;;
17145;SDS011;8688;54.444;18.444;2022-12-07T04:08:46;6.47;;;3.50;;
17145;SDS011;8688;54.444;18.444;2022-12-07T04:11:14;7.53;;;3.80;;
17145;SDS011;8688;54.444;18.444;2022-12-07T04:13:41;5.57;;;3.47;;
17145;SDS011;8688;54.444;18.444;2022-12-07T04:16:36;6.67;;;3.70;;
17145;SDS011;8688;54.444;18.444;2022-12-07T04:19:03;6.30;;;3.83;;
17145;SDS011;8688;54.444;18.444;2022-12-07T04:21:31;5.77;;;3.60;;
17145;SDS011;8688;54.444;18.444;2022-12-07T04:23:58;7.70;;;4.00;;
17145;SDS011;8688;54.444;18.444;2022-12-07T04:26:26;6.97;;;4.13;;
17145;SDS011;8688;54.444;18.444;2022-12-07T04:28:53;6.20;;;4.07;;
17145;SDS011;8688;54.444;18.444;2022-12-07T04:31:21;6.43;;;4.13;;
17145;SDS011;8688;54.444;18.444;2022-12-07T04:33:50;6.27;;;3.80;;
17145;SDS011;8688;54.444;18.444;2022-12-07T04:36:17;7.50;;;3.77;;
17145;SDS011;8688;54.444;18.444;2022-12-07T04:38:45;7.43;;;4.17;;
17145;SDS011;8688;54.444;18.444;2022-12-07T04:41:13;7.77;;;4.33;;
17145;SDS011;8688;54.444;18.444;2022-12-07T04:43:40;7.10;;;3.73;;
17145;SDS011;8688;54.444;18.444;2022-12-07T04:46:08;6.87;;;3.33;;
17145;SDS011;8688;54.444;18.444;2022-12-07T04:48:35;5.30;;;3.17;;
17145;SDS011;8688;54.444;18.444;2022-12-07T04:51:05;5.87;;;3.00;;
17145;SDS011;8688;54.444;18.444;2022-12-07T04:53:32;4.13;;;2.30;;
17145;SDS011;8688;54.444;18.444;2022-12-07T04:56:00;3.80;;;2.40;;
17145;SDS011;8688;54.444;18.444;2022-12-07T04:58:27;3.20;;;2.03;;
17145;SDS011;8688;54.444;18.444;2022-12-07T05:00:55;4.00;;;2.20;;
17145;SDS011;8688;54.444;18.444;2022-12-07T05:03:22;3.00;;;2.30;;
17145;SDS011;8688;54.444;18.444;2022-12-07T05:05:50;4.70;;;2.13;;
17145;SDS011;8688;54.444;18.444;2022-12-07T05:08:19;5.37;;;2.60;;
17145;SDS011;8688;54.444;18.444;2022-12-07T05:10:46;6.93;;;2.70;;
17145;SDS011;8688;54.444;18.444;2022-12-07T05:13:15;6.40;;;2.60;;
17145;SDS011;8688;54.444;18.444;2022-12-07T05:15:42;4.60;;;2.40;;
17145;SDS011;8688;54.444;18.444;2022-12-07T05:18:10;4.40;;;1.97;;
17145;SDS011;8688;54.444;18.444;2022-12-07T05:20:38;3.07;;;1.90;;
17145;SDS011;8688;54.444;18.444;2022-12-07T05:23:06;4.43;;;2.20;;
17145;SDS011;8688;54.444;18.444;2022-12-07T05:25:35;3.33;;;1.87;;
17145;SDS011;8688;54.444;18.444;2022-12-07T05:28:02;7.93;;;3.47;;
17145;SDS011;8688;54.444;18.444;2022-12-07T05:30:30;11.90;;;4.27;;
17145;SDS011;8688;54.444;18.444;2022-12-07T05:32:58;10.57;;;4.40;;
17145;SDS011;8688;54.444;18.444;2022-12-07T05:35:26;12.77;;;5.07;;
17145;SDS011;8688;54.444;18.444;2022-12-07T05:37:53;5.17;;;2.43;;
17145;SDS011;8688;54.444;18.444;2022-12-07T05:40:21;4.90;;;3.20;;
17145;SDS011;8688;54.444;18.444;2022-12-07T05:42:50;3.13;;;2.20;;
17145;SDS011;8688;54.444;18.444;2022-12-07T05:45:17;1.97;;;1.53;;
17145;SDS011;8688;54.444;18.444;2022-12-07T05:47:45;5.17;;;2.53;;
17145;SDS011;8688;54.444;18.444;2022-12-07T05:50:12;3.77;;;2.37;;
17145;SDS011;8688;54.444;18.444;2022-12-07T05:52:39;4.87;;;2.83;;
17145;SDS011;8688;54.444;18.444;2022-12-07T05:55:07;5.47;;;3.17;;
17145;SDS011;8688;54.444;18.444;2022-12-07T05:57:35;10.10;;;4.33;;
17145;SDS011;8688;54.444;18.444;2022-12-07T06:00:04;8.73;;;4.40;;
17145;SDS011;8688;54.444;18.444;2022-12-07T06:02:31;12.47;;;4.60;;
17145;SDS011;8688;54.444;18.444;2022-12-07T06:04:59;9.53;;;4.30;;
17145;SDS011;8688;54.444;18.444;2022-12-07T06:07:26;7.47;;;4.00;;
17145;SDS011;8688;54.444;18.444;2022-12-07T06:09:54;7.50;;;3.73;;
17145;SDS011;8688;54.444;18.444;2022-12-07T06:12:21;2.83;;;2.03;;
17145;SDS011;8688;54.444;18.444;2022-12-07T06:15:00;2.10;;;1.53;;
17145;SDS011;8688;54.444;18.444;2022-12-07T06:17:29;1.40;;;1.13;;
17145;SDS011;8688;54.444;18.444;2022-12-07T06:19:56;3.23;;;1.83;;
17145;SDS011;8688;54.444;18.444;2022-12-07T06:22:23;3.10;;;1.60;;
17145;SDS011;8688;54.444;18.444;2022-12-07T06:24:51;3.73;;;2.00;;
17145;SDS011;8688;54.444;18.444;2022-12-07T06:27:18;3.20;;;1.63;;
17145;SDS011;8688;54.444;18.444;2022-12-07T06:29:46;3.60;;;1.97;;
17145;SDS011;8688;54.444;18.444;2022-12-07T06:32:14;4.77;;;2.23;;
17145;SDS011;8688;54.444;18.444;2022-12-07T06:34:44;3.90;;;2.10;;
17145;SDS011;8688;54.444;18.444;2022-12-07T06:37:12;4.77;;;2.10;;
17145;SDS011;8688;54.444;18.444;2022-12-07T06:39:40;4.83;;;2.57;;
17145;SDS011;8688;54.444;18.444;2022-12-07T06:42:07;4.77;;;2.70;;
17145;SDS011;8688;54.444;18.444;2022-12-07T06:44:35;4.43;;;2.60;;
17145;SDS011;8688;54.444;18.444;2022-12-07T06:47:02;6.50;;;2.50;;
17145;SDS011;8688;54.444;18.444;2022-12-07T06:49:30;3.60;;;2.20;;
17145;SDS011;8688;54.444;18.444;2022-12-07T06:51:59;4.33;;;2.20;;
17145;SDS011;8688;54.444;18.444;2022-12-07T06:54:27;5.57;;;2.30;;
17145;SDS011;8688;54.444;18.444;2022-12-07T06:56:55;4.80;;;2.50;;
17145;SDS011;8688;54.444;18.444;2022-12-07T06:59:22;4.07;;;2.60;;
17145;SDS011;8688;54.444;18.444;2022-12-07T07:01:50;4.70;;;2.63;;
17145;SDS011;8688;54.444;18.444;2022-12-07T07:04:18;6.57;;;3.37;;
17145;SDS011;8688;54.444;18.444;2022-12-07T07:06:45;13.77;;;5.20;;
17145;SDS011;8688;54.444;18.444;2022-12-07T07:09:14;15.43;;;6.23;;
17145;SDS011;8688;54.444;18.444;2022-12-07T07:11:42;16.20;;;6.03;;
17145;SDS011;8688;54.444;18.444;2022-12-07T07:14:09;13.30;;;5.07;;
17145;SDS011;8688;54.444;18.444;2022-12-07T07:16:37;8.77;;;4.23;;
17145;SDS011;8688;54.444;18.444;2022-12-07T07:19:04;12.13;;;4.17;;
17145;SDS011;8688;54.444;18.444;2022-12-07T07:21:32;14.30;;;5.27;;
17145;SDS011;8688;54.444;18.444;2022-12-07T07:23:59;11.13;;;4.23;;
17145;SDS011;8688;54.444;18.444;2022-12-07T07:26:28;13.43;;;4.37;;
17145;SDS011;8688;54.444;18.444;2022-12-07T07:28:55;7.80;;;4.00;;
17145;SDS011;8688;54.444;18.444;2022-12-07T07:31:23;6.13;;;3.50;;
17145;SDS011;8688;54.444;18.444;2022-12-07T07:33:50;6.03;;;3.13;;
17145;SDS011;8688;54.444;18.444;2022-12-07T07:36:17;5.07;;;3.23;;
17145;SDS011;8688;54.444;18.444;2022-12-07T07:38:45;5.80;;;3.23;;
17145;SDS011;8688;54.444;18.444;2022-12-07T07:41:12;5.33;;;3.10;;
17145;SDS011;8688;54.444;18.444;2022-12-07T07:43:41;6.93;;;3.67;;
17145;SDS011;8688;54.444;18.444;2022-12-07T07:46:09;9.07;;;4.33;;
17145;SDS011;8688;54.444;18.444;2022-12-07T07:48:36;8.80;;;4.40;;
17145;SDS011;8688;54.444;18.444;2022-12-07T07:51:04;12.90;;;5.70;;
17145;SDS011;8688;54.444;18.444;2022-12-07T07:53:33;11.50;;;6.53;;
17145;SDS011;8688;54.444;18.444;2022-12-07T07:56:00;14.37;;;6.80;;
17145;SDS011;8688;54.444;18.444;2022-12-07T07:58:28;13.43;;;6.43;;
17145;SDS011;8688;54.444;18.444;2022-12-07T08:00:57;14.13;;;7.57;;
17145;SDS011;8688;54.444;18.444;2022-12-07T08:03:30;13.67;;;6.77;;
17145;SDS011;8688;54.444;18.444;2022-12-07T08:05:58;11.00;;;5.83;;
17145;SDS011;8688;54.444;18.444;2022-12-07T08:08:25;10.93;;;6.10;;
17145;SDS011;8688;54.444;18.444;2022-12-07T08:10:53;9.33;;;5.20;;
17145;SDS011;8688;54.444;18.444;2022-12-07T08:13:20;9.17;;;5.07;;
17145;SDS011;8688;54.444;18.444;2022-12-07T08:15:48;7.97;;;5.10;;
17145;SDS011;8688;54.444;18.444;2022-12-07T08:18:17;6.63;;;4.30;;
17145;SDS011;8688;54.444;18.444;2022-12-07T08:20:44;9.03;;;5.30;;
17145;SDS011;8688;54.444;18.444;2022-12-07T08:23:11;12.53;;;6.13;;
17145;SDS011;8688;54.444;18.444;2022-12-07T08:25:39;15.00;;;6.53;;
17145;SDS011;8688;54.444;18.444;2022-12-07T08:28:07;18.83;;;7.00;;
17145;SDS011;8688;54.444;18.444;2022-12-07T08:30:34;14.83;;;6.60;;
17145;SDS011;8688;54.444;18.444;2022-12-07T08:33:02;16.03;;;6.73;;
17145;SDS011;8688;54.444;18.444;2022-12-07T08:35:32;14.53;;;5.50;;
17145;SDS011;8688;54.444;18.444;2022-12-07T08:37:59;15.20;;;5.80;;
17145;SDS011;8688;54.444;18.444;2022-12-07T08:40:27;15.47;;;5.43;;
17145;SDS011;8688;54.444;18.444;2022-12-07T08:42:55;15.47;;;6.63;;
17145;SDS011;8688;54.444;18.444;2022-12-07T08:45:23;24.90;;;11.30;;
17145;SDS011;8688;54.444;18.444;2022-12-07T08:47:51;27.60;;;15.43;;
17145;SDS011;8688;54.444;18.444;2022-12-07T08:50:22;19.43;;;9.40;;
17145;SDS011;8688;54.444;18.444;2022-12-07T08:52:52;17.77;;;10.40;;
17145;SDS011;8688;54.444;18.444;2022-12-07T08:55:23;13.93;;;6.10;;
17145;SDS011;8688;54.444;18.444;2022-12-07T08:57:51;13.40;;;6.47;;
17145;SDS011;8688;54.444;18.444;2022-12-07T09:00:19;11.50;;;6.00;;
17145;SDS011;8688;54.444;18.444;2022-12-07T09:02:46;11.00;;;4.80;;
17145;SDS011;8688;54.444;18.444;2022-12-07T09:05:14;14.20;;;7.20;;
17145;SDS011;8688;54.444;18.444;2022-12-07T09:07:42;9.80;;;4.77;;
17145;SDS011;8688;54.444;18.444;2022-12-07T09:10:14;7.47;;;4.23;;
17145;SDS011;8688;54.444;18.444;2022-12-07T09:12:41;7.27;;;4.53;;
17145;SDS011;8688;54.444;18.444;2022-12-07T09:15:09;10.93;;;5.30;;
17145;SDS011;8688;54.444;18.444;2022-12-07T09:17:36;26.87;;;12.43;;
17145;SDS011;8688;54.444;18.444;2022-12-07T09:20:04;18.30;;;11.93;;
17145;SDS011;8688;54.444;18.444;2022-12-07T09:22:32;6.80;;;4.40;;
17145;SDS011;8688;54.444;18.444;2022-12-07T09:25:00;8.63;;;4.90;;
17145;SDS011;8688;54.444;18.444;2022-12-07T09:27:30;28.67;;;13.37;;
17145;SDS011;8688;54.444;18.444;2022-12-07T09:29:57;32.70;;;15.87;;
17145;SDS011;8688;54.444;18.444;2022-12-07T09:32:25;8.50;;;5.07;;
17145;SDS011;8688;54.444;18.444;2022-12-07T09:34:52;5.93;;;4.40;;
17145;SDS011;8688;54.444;18.444;2022-12-07T09:37:20;5.80;;;3.97;;
17145;SDS011;8688;54.444;18.444;2022-12-07T09:39:48;14.63;;;9.60;;
17145;SDS011;8688;54.444;18.444;2022-12-07T09:42:21;12.27;;;5.70;;
17145;SDS011;8688;54.444;18.444;2022-12-07T09:44:55;6.73;;;4.30;;
17145;SDS011;8688;54.444;18.444;2022-12-07T09:47:24;10.77;;;6.30;;
17145;SDS011;8688;54.444;18.444;2022-12-07T09:49:52;8.10;;;4.57;;
17145;SDS011;8688;54.444;18.444;2022-12-07T09:52:25;14.87;;;6.93;;
17145;SDS011;8688;54.444;18.444;2022-12-07T09:54:55;16.77;;;10.17;;
17145;SDS011;8688;54.444;18.444;2022-12-07T09:57:25;15.33;;;8.50;;
17145;SDS011;8688;54.444;18.444;2022-12-07T09:59:59;29.17;;;15.63;;
17145;SDS011;8688;54.444;18.444;2022-12-07T10:02:34;11.67;;;6.10;;
17145;SDS011;8688;54.444;18.444;2022-12-07T10:05:03;9.67;;;6.20;;
17145;SDS011;8688;54.444;18.444;2022-12-07T10:07:33;10.43;;;5.23;;
17145;SDS011;8688;54.444;18.444;2022-12-07T10:10:02;11.30;;;6.03;;
17145;SDS011;8688;54.444;18.444;2022-12-07T10:12:31;6.87;;;4.33;;
17145;SDS011;8688;54.444;18.444;2022-12-07T10:15:24;7.57;;;4.70;;
17145;SDS011;8688;54.444;18.444;2022-12-07T10:18:19;8.27;;;5.43;;
17145;SDS011;8688;54.444;18.444;2022-12-07T10:20:59;7.23;;;4.77;;
17145;SDS011;8688;54.444;18.444;2022-12-07T10:23:34;7.53;;;4.90;;
17145;SDS011;8688;54.444;18.444;2022-12-07T10:28:46;8.90;;;5.67;;
17145;SDS011;8688;54.444;18.444;2022-12-07T10:31:17;12.83;;;6.40;;
17145;SDS011;8688;54.444;18.444;2022-12-07T10:33:49;9.10;;;5.50;;
17145;SDS011;8688;54.444;18.444;2022-12-07T10:36:19;8.03;;;5.07;;
17145;SDS011;8688;54.444;18.444;2022-12-07T10:38:49;6.17;;;4.47;;
17145;SDS011;8688;54.444;18.444;2022-12-07T10:41:18;9.90;;;5.83;;
17145;SDS011;8688;54.444;18.444;2022-12-07T10:43:47;6.53;;;4.40;;
17145;SDS011;8688;54.444;18.444;2022-12-07T10:46:41;6.73;;;4.37;;
17145;SDS011;8688;54.444;18.444;2022-12-07T10:52:35;15.23;;;8.83;;
17145;SDS011;8688;54.444;18.444;2022-12-07T10:55:16;34.93;;;15.63;;
17145;SDS011;8688;54.444;18.444;2022-12-07T10:57:55;10.53;;;5.93;;
17145;SDS011;8688;54.444;18.444;2022-12-07T11:00:43;8.60;;;5.00;;
17145;SDS011;8688;54.444;18.444;2022-12-07T11:03:30;10.90;;;6.13;;
17145;SDS011;8688;54.444;18.444;2022-12-07T11:06:10;9.20;;;5.30;;
17145;SDS011;8688;54.444;18.444;2022-12-07T11:08:52;6.43;;;4.73;;
17145;SDS011;8688;54.444;18.444;2022-12-07T11:11:29;7.30;;;4.50;;
17145;SDS011;8688;54.444;18.444;2022-12-07T11:14:03;7.00;;;4.67;;
17145;SDS011;8688;54.444;18.444;2022-12-07T11:16:45;7.27;;;4.53;;
17145;SDS011;8688;54.444;18.444;2022-12-07T11:19:34;7.53;;;4.47;;
17145;SDS011;8688;54.444;18.444;2022-12-07T11:22:17;16.37;;;6.97;;
17145;SDS011;8688;54.444;18.444;2022-12-07T11:24:50;18.13;;;7.83;;
17145;SDS011;8688;54.444;18.444;2022-12-07T11:27:24;6.33;;;4.23;;
17145;SDS011;8688;54.444;18.444;2022-12-07T11:30:03;6.97;;;3.93;;
17145;SDS011;8688;54.444;18.444;2022-12-07T11:32:58;5.97;;;3.93;;
17145;SDS011;8688;54.444;18.444;2022-12-07T11:35:43;5.30;;;3.63;;
17145;SDS011;8688;54.444;18.444;2022-12-07T11:38:22;6.53;;;3.97;;
17145;SDS011;8688;54.444;18.444;2022-12-07T11:40:55;6.27;;;4.20;;
17145;SDS011;8688;54.444;18.444;2022-12-07T11:43:37;6.63;;;4.17;;
17145;SDS011;8688;54.444;18.444;2022-12-07T11:46:17;6.93;;;4.50;;
17145;SDS011;8688;54.444;18.444;2022-12-07T11:48:45;7.93;;;4.80;;
17145;SDS011;8688;54.444;18.444;2022-12-07T11:51:20;7.97;;;4.63;;
17145;SDS011;8688;54.444;18.444;2022-12-07T11:53:50;7.90;;;4.90;;
17145;SDS011;8688;54.444;18.444;2022-12-07T11:56:21;7.10;;;4.23;;
17145;SDS011;8688;54.444;18.444;2022-12-07T11:58:51;8.87;;;5.47;;
17145;SDS011;8688;54.444;18.444;2022-12-07T12:01:29;9.63;;;5.03;;
17145;SDS011;8688;54.444;18.444;2022-12-07T12:04:11;11.50;;;4.63;;
17145;SDS011;8688;54.444;18.444;2022-12-07T12:06:46;10.73;;;4.40;;
17145;SDS011;8688;54.444;18.444;2022-12-07T12:09:14;8.73;;;4.57;;
17145;SDS011;8688;54.444;18.444;2022-12-07T12:11:48;8.27;;;4.57;;
17145;SDS011;8688;54.444;18.444;2022-12-07T12:14:35;13.87;;;3.97;;
17145;SDS011;8688;54.444;18.444;2022-12-07T12:17:18;10.77;;;4.40;;
17145;SDS011;8688;54.444;18.444;2022-12-07T12:20:15;9.93;;;5.20;;
17145;SDS011;8688;54.444;18.444;2022-12-07T12:22:50;8.23;;;4.53;;
17145;SDS011;8688;54.444;18.444;2022-12-07T12:25:23;7.53;;;4.47;;
17145;SDS011;8688;54.444;18.444;2022-12-07T12:27:54;9.30;;;5.50;;
17145;SDS011;8688;54.444;18.444;2022-12-07T12:30:30;10.23;;;5.60;;
17145;SDS011;8688;54.444;18.444;2022-12-07T12:33:04;9.53;;;5.97;;
17145;SDS011;8688;54.444;18.444;2022-12-07T12:35:33;8.40;;;4.57;;
17145;SDS011;8688;54.444;18.444;2022-12-07T12:38:26;7.87;;;5.07;;
17145;SDS011;8688;54.444;18.444;2022-12-07T12:40:58;11.00;;;5.90;;
17145;SDS011;8688;54.444;18.444;2022-12-07T12:52:46;11.47;;;5.63;;
17145;SDS011;8688;54.444;18.444;2022-12-07T12:55:24;13.50;;;4.77;;
17145;SDS011;8688;54.444;18.444;2022-12-07T13:04:18;5.90;;;3.90;;
17145;SDS011;8688;54.444;18.444;2022-12-07T13:07:04;8.10;;;4.60;;
17145;SDS011;8688;54.444;18.444;2022-12-07T13:09:35;6.57;;;3.80;;
17145;SDS011;8688;54.444;18.444;2022-12-07T13:12:13;10.03;;;4.20;;
17145;SDS011;8688;54.444;18.444;2022-12-07T13:14:43;30.40;;;13.00;;
17145;SDS011;8688;54.444;18.444;2022-12-07T13:23:20;9.17;;;4.20;;
17145;SDS011;8688;54.444;18.444;2022-12-07T13:25:55;8.67;;;4.80;;
17145;SDS011;8688;54.444;18.444;2022-12-07T13:28:41;24.77;;;5.60;;
17145;SDS011;8688;54.444;18.444;2022-12-07T13:34:00;9.67;;;4.97;;
17145;SDS011;8688;54.444;18.444;2022-12-07T13:36:29;14.40;;;4.70;;
17145;SDS011;8688;54.444;18.444;2022-12-07T13:39:10;9.23;;;3.93;;
17145;SDS011;8688;54.444;18.444;2022-12-07T13:41:44;8.87;;;3.90;;
17145;SDS011;8688;54.444;18.444;2022-12-07T13:44:18;9.87;;;4.47;;
17145;SDS011;8688;54.444;18.444;2022-12-07T13:46:51;7.67;;;3.80;;
17145;SDS011;8688;54.444;18.444;2022-12-07T13:49:33;8.53;;;3.67;;
17145;SDS011;8688;54.444;18.444;2022-12-07T13:52:15;7.87;;;3.70;;
17145;SDS011;8688;54.444;18.444;2022-12-07T13:54:47;7.53;;;3.83;;
17145;SDS011;8688;54.444;18.444;2022-12-07T13:57:15;6.93;;;3.27;;
17145;SDS011;8688;54.444;18.444;2022-12-07T13:59:44;6.57;;;4.00;;
17145;SDS011;8688;54.444;18.444;2022-12-07T14:02:20;7.90;;;3.87;;
17145;SDS011;8688;54.444;18.444;2022-12-07T14:04:50;5.53;;;3.60;;
17145;SDS011;8688;54.444;18.444;2022-12-07T14:07:19;6.30;;;3.50;;
17145;SDS011;8688;54.444;18.444;2022-12-07T14:09:58;6.50;;;3.57;;
17145;SDS011;8688;54.444;18.444;2022-12-07T14:12:28;8.63;;;3.97;;
17145;SDS011;8688;54.444;18.444;2022-12-07T14:14:58;8.60;;;4.37;;
17145;SDS011;8688;54.444;18.444;2022-12-07T14:17:27;7.53;;;4.03;;
17145;SDS011;8688;54.444;18.444;2022-12-07T14:19:55;7.60;;;3.57;;
17145;SDS011;8688;54.444;18.444;2022-12-07T14:22:28;8.77;;;4.20;;
17145;SDS011;8688;54.444;18.444;2022-12-07T14:24:58;9.23;;;4.50;;
17145;SDS011;8688;54.444;18.444;2022-12-07T14:27:30;8.47;;;4.03;;
17145;SDS011;8688;54.444;18.444;2022-12-07T14:30:03;8.53;;;4.47;;
17145;SDS011;8688;54.444;18.444;2022-12-07T14:32:32;9.03;;;4.13;;
17145;SDS011;8688;54.444;18.444;2022-12-07T14:35:03;11.67;;;4.80;;
17145;SDS011;8688;54.444;18.444;2022-12-07T14:37:36;11.60;;;4.80;;
17145;SDS011;8688;54.444;18.444;2022-12-07T14:40:05;14.43;;;5.50;;
17145;SDS011;8688;54.444;18.444;2022-12-07T14:42:33;11.77;;;5.20;;
17145;SDS011;8688;54.444;18.444;2022-12-07T14:45:03;12.20;;;5.00;;
17145;SDS011;8688;54.444;18.444;2022-12-07T14:47:34;7.00;;;3.40;;
17145;SDS011;8688;54.444;18.444;2022-12-07T14:50:01;7.40;;;3.70;;
17145;SDS011;8688;54.444;18.444;2022-12-07T14:52:29;10.10;;;4.50;;
17145;SDS011;8688;54.444;18.444;2022-12-07T14:54:56;10.47;;;4.53;;
17145;SDS011;8688;54.444;18.444;2022-12-07T14:57:24;13.30;;;4.40;;
17145;SDS011;8688;54.444;18.444;2022-12-07T14:59:51;12.03;;;4.03;;
17145;SDS011;8688;54.444;18.444;2022-12-07T15:02:20;10.93;;;4.17;;
17145;SDS011;8688;54.444;18.444;2022-12-07T15:04:48;9.30;;;3.63;;
17145;SDS011;8688;54.444;18.444;2022-12-07T15:07:19;8.63;;;3.50;;
17145;SDS011;8688;54.444;18.444;2022-12-07T15:09:47;8.00;;;2.97;;
17145;SDS011;8688;54.444;18.444;2022-12-07T15:12:15;6.43;;;3.30;;
17145;SDS011;8688;54.444;18.444;2022-12-07T15:14:43;8.50;;;3.47;;
17145;SDS011;8688;54.444;18.444;2022-12-07T15:17:10;8.33;;;3.30;;
17145;SDS011;8688;54.444;18.444;2022-12-07T15:19:40;7.07;;;2.97;;
17145;SDS011;8688;54.444;18.444;2022-12-07T15:22:07;9.47;;;3.77;;
17145;SDS011;8688;54.444;18.444;2022-12-07T15:24:36;7.47;;;3.50;;
17145;SDS011;8688;54.444;18.444;2022-12-07T15:27:04;8.10;;;3.63;;
17145;SDS011;8688;54.444;18.444;2022-12-07T15:29:31;9.50;;;4.40;;
17145;SDS011;8688;54.444;18.444;2022-12-07T15:31:59;8.53;;;3.77;;
17145;SDS011;8688;54.444;18.444;2022-12-07T15:34:27;11.07;;;4.53;;
17145;SDS011;8688;54.444;18.444;2022-12-07T15:36:57;8.13;;;3.50;;
17145;SDS011;8688;54.444;18.444;2022-12-07T15:39:25;7.90;;;4.40;;